sensor_id;sensor_type;location;lat;lon;timestamp;P1;durP1;ratioP1;P2;durP2;ratioP2
61640;SDS011;62201;49.966;8.342;2023-06-22T00:01:26;5.35;;;3.63;;
61640;SDS011;62201;49.966;8.342;2023-06-22T00:03:51;6.43;;;4.00;;
61640;SDS011;62201;49.966;8.342;2023-06-22T00:06:16;5.90;;;4.10;;
61640;SDS011;62201;49.966;8.342;2023-06-22T00:08:42;4.32;;;3.92;;
61640;SDS011;62201;49.966;8.342;2023-06-22T00:11:07;4.85;;;4.03;;
61640;SDS011;62201;49.966;8.342;2023-06-22T00:13:33;7.45;;;4.32;;
61640;SDS011;62201;49.966;8.342;2023-06-22T00:15:58;6.47;;;4.43;;
61640;SDS011;62201;49.966;8.342;2023-06-22T00:18:23;4.63;;;4.22;;
61640;SDS011;62201;49.966;8.342;2023-06-22T00:20:53;6.22;;;4.20;;
61640;SDS011;62201;49.966;8.342;2023-06-22T00:23:22;4.97;;;4.10;;
61640;SDS011;62201;49.966;8.342;2023-06-22T00:25:48;6.22;;;4.38;;
61640;SDS011;62201;49.966;8.342;2023-06-22T00:28:14;4.65;;;4.10;;
61640;SDS011;62201;49.966;8.342;2023-06-22T00:30:40;4.68;;;4.18;;
61640;SDS011;62201;49.966;8.342;2023-06-22T00:33:05;10.00;;;4.68;;
61640;SDS011;62201;49.966;8.342;2023-06-22T00:35:32;6.40;;;4.55;;
61640;SDS011;62201;49.966;8.342;2023-06-22T00:37:59;6.88;;;4.50;;
61640;SDS011;62201;49.966;8.342;2023-06-22T00:40:29;6.07;;;4.80;;
61640;SDS011;62201;49.966;8.342;2023-06-22T00:42:56;5.43;;;4.75;;
61640;SDS011;62201;49.966;8.342;2023-06-22T00:45:22;6.97;;;4.35;;
61640;SDS011;62201;49.966;8.342;2023-06-22T00:47:52;5.72;;;4.35;;
61640;SDS011;62201;49.966;8.342;2023-06-22T00:50:19;8.68;;;4.70;;
61640;SDS011;62201;49.966;8.342;2023-06-22T00:52:47;10.95;;;5.53;;
61640;SDS011;62201;49.966;8.342;2023-06-22T00:55:15;5.55;;;4.47;;
61640;SDS011;62201;49.966;8.342;2023-06-22T00:57:42;9.52;;;5.03;;
61640;SDS011;62201;49.966;8.342;2023-06-22T01:00:10;7.22;;;5.45;;
61640;SDS011;62201;49.966;8.342;2023-06-22T01:02:42;8.73;;;5.30;;
61640;SDS011;62201;49.966;8.342;2023-06-22T01:05:10;7.93;;;5.53;;
61640;SDS011;62201;49.966;8.342;2023-06-22T01:07:39;12.88;;;5.50;;
61640;SDS011;62201;49.966;8.342;2023-06-22T01:10:15;7.88;;;5.70;;
61640;SDS011;62201;49.966;8.342;2023-06-22T01:13:04;7.18;;;5.55;;
61640;SDS011;62201;49.966;8.342;2023-06-22T01:15:40;9.45;;;5.93;;
61640;SDS011;62201;49.966;8.342;2023-06-22T01:18:11;10.07;;;5.97;;
61640;SDS011;62201;49.966;8.342;2023-06-22T01:20:38;9.80;;;6.25;;
61640;SDS011;62201;49.966;8.342;2023-06-22T01:23:17;14.52;;;6.70;;
61640;SDS011;62201;49.966;8.342;2023-06-22T01:25:48;10.88;;;6.68;;
61640;SDS011;62201;49.966;8.342;2023-06-22T01:31:13;9.02;;;6.90;;
61640;SDS011;62201;49.966;8.342;2023-06-22T01:33:42;9.75;;;6.40;;
61640;SDS011;62201;49.966;8.342;2023-06-22T01:36:09;7.03;;;6.40;;
61640;SDS011;62201;49.966;8.342;2023-06-22T01:38:35;7.75;;;6.05;;
61640;SDS011;62201;49.966;8.342;2023-06-22T01:41:02;8.73;;;6.38;;
61640;SDS011;62201;49.966;8.342;2023-06-22T01:43:28;6.90;;;6.20;;
61640;SDS011;62201;49.966;8.342;2023-06-22T01:45:55;7.68;;;6.60;;
61640;SDS011;62201;49.966;8.342;2023-06-22T01:48:22;7.10;;;6.32;;
61640;SDS011;62201;49.966;8.342;2023-06-22T01:50:48;7.95;;;6.60;;
61640;SDS011;62201;49.966;8.342;2023-06-22T01:53:14;7.28;;;6.57;;
61640;SDS011;62201;49.966;8.342;2023-06-22T01:55:39;9.05;;;6.28;;
61640;SDS011;62201;49.966;8.342;2023-06-22T01:58:04;9.40;;;6.25;;
61640;SDS011;62201;49.966;8.342;2023-06-22T02:00:34;11.88;;;6.65;;
61640;SDS011;62201;49.966;8.342;2023-06-22T02:03:07;8.18;;;6.28;;
61640;SDS011;62201;49.966;8.342;2023-06-22T02:05:36;9.20;;;6.75;;
61640;SDS011;62201;49.966;8.342;2023-06-22T02:08:08;7.85;;;6.18;;
61640;SDS011;62201;49.966;8.342;2023-06-22T02:10:36;10.63;;;6.60;;
61640;SDS011;62201;49.966;8.342;2023-06-22T02:13:06;7.40;;;6.60;;
61640;SDS011;62201;49.966;8.342;2023-06-22T02:15:32;7.57;;;6.80;;
61640;SDS011;62201;49.966;8.342;2023-06-22T02:17:59;11.70;;;6.88;;
61640;SDS011;62201;49.966;8.342;2023-06-22T02:20:24;8.63;;;6.85;;
61640;SDS011;62201;49.966;8.342;2023-06-22T02:22:50;8.15;;;6.18;;
61640;SDS011;62201;49.966;8.342;2023-06-22T02:25:15;8.48;;;6.20;;
61640;SDS011;62201;49.966;8.342;2023-06-22T02:27:41;9.35;;;6.70;;
61640;SDS011;62201;49.966;8.342;2023-06-22T02:30:09;9.48;;;6.47;;
61640;SDS011;62201;49.966;8.342;2023-06-22T02:32:35;9.90;;;6.70;;
61640;SDS011;62201;49.966;8.342;2023-06-22T02:35:01;12.15;;;6.68;;
61640;SDS011;62201;49.966;8.342;2023-06-22T02:37:30;10.70;;;6.43;;
61640;SDS011;62201;49.966;8.342;2023-06-22T02:39:56;8.43;;;6.60;;
61640;SDS011;62201;49.966;8.342;2023-06-22T02:42:21;9.18;;;6.82;;
61640;SDS011;62201;49.966;8.342;2023-06-22T02:44:47;8.75;;;6.53;;
61640;SDS011;62201;49.966;8.342;2023-06-22T02:47:12;8.43;;;6.72;;
61640;SDS011;62201;49.966;8.342;2023-06-22T02:49:38;11.05;;;6.80;;
61640;SDS011;62201;49.966;8.342;2023-06-22T02:52:03;7.70;;;6.28;;
61640;SDS011;62201;49.966;8.342;2023-06-22T02:54:29;10.77;;;7.13;;
61640;SDS011;62201;49.966;8.342;2023-06-22T02:56:54;8.38;;;7.00;;
61640;SDS011;62201;49.966;8.342;2023-06-22T02:59:20;7.75;;;6.80;;
61640;SDS011;62201;49.966;8.342;2023-06-22T03:01:49;11.45;;;6.60;;
61640;SDS011;62201;49.966;8.342;2023-06-22T03:04:15;8.77;;;6.97;;
61640;SDS011;62201;49.966;8.342;2023-06-22T03:06:40;9.60;;;7.38;;
61640;SDS011;62201;49.966;8.342;2023-06-22T03:09:06;8.23;;;6.90;;
61640;SDS011;62201;49.966;8.342;2023-06-22T03:11:32;8.25;;;6.38;;
61640;SDS011;62201;49.966;8.342;2023-06-22T03:13:58;11.68;;;7.00;;
61640;SDS011;62201;49.966;8.342;2023-06-22T03:16:25;10.75;;;7.22;;
61640;SDS011;62201;49.966;8.342;2023-06-22T03:18:50;8.38;;;6.63;;
61640;SDS011;62201;49.966;8.342;2023-06-22T03:21:16;8.52;;;6.95;;
61640;SDS011;62201;49.966;8.342;2023-06-22T03:23:42;9.88;;;6.80;;
61640;SDS011;62201;49.966;8.342;2023-06-22T03:26:08;8.68;;;6.43;;
61640;SDS011;62201;49.966;8.342;2023-06-22T03:28:34;7.22;;;6.45;;
61640;SDS011;62201;49.966;8.342;2023-06-22T03:31:00;10.30;;;6.30;;
61640;SDS011;62201;49.966;8.342;2023-06-22T03:33:25;6.85;;;6.25;;
61640;SDS011;62201;49.966;8.342;2023-06-22T03:35:51;8.98;;;7.03;;
61640;SDS011;62201;49.966;8.342;2023-06-22T03:38:16;8.45;;;6.75;;
61640;SDS011;62201;49.966;8.342;2023-06-22T03:40:42;7.22;;;6.53;;
61640;SDS011;62201;49.966;8.342;2023-06-22T03:43:08;10.05;;;6.78;;
61640;SDS011;62201;49.966;8.342;2023-06-22T03:45:33;12.45;;;6.97;;
61640;SDS011;62201;49.966;8.342;2023-06-22T03:48:00;9.00;;;6.85;;
61640;SDS011;62201;49.966;8.342;2023-06-22T03:50:25;7.28;;;6.57;;
61640;SDS011;62201;49.966;8.342;2023-06-22T03:52:51;9.40;;;6.88;;
61640;SDS011;62201;49.966;8.342;2023-06-22T03:55:17;8.07;;;7.00;;
61640;SDS011;62201;49.966;8.342;2023-06-22T03:57:44;7.43;;;6.63;;
61640;SDS011;62201;49.966;8.342;2023-06-22T04:00:10;8.40;;;6.45;;
61640;SDS011;62201;49.966;8.342;2023-06-22T04:02:36;10.32;;;7.30;;
61640;SDS011;62201;49.966;8.342;2023-06-22T04:05:02;12.38;;;6.78;;
61640;SDS011;62201;49.966;8.342;2023-06-22T04:07:27;9.15;;;7.43;;
61640;SDS011;62201;49.966;8.342;2023-06-22T04:09:52;11.70;;;7.45;;
61640;SDS011;62201;49.966;8.342;2023-06-22T04:12:18;10.15;;;7.70;;
61640;SDS011;62201;49.966;8.342;2023-06-22T04:14:43;11.43;;;7.45;;
61640;SDS011;62201;49.966;8.342;2023-06-22T04:17:09;8.57;;;7.55;;
61640;SDS011;62201;49.966;8.342;2023-06-22T04:19:34;15.23;;;7.70;;
61640;SDS011;62201;49.966;8.342;2023-06-22T04:21:59;14.35;;;7.40;;
61640;SDS011;62201;49.966;8.342;2023-06-22T04:24:25;18.92;;;7.50;;
61640;SDS011;62201;49.966;8.342;2023-06-22T04:26:50;10.15;;;7.05;;
61640;SDS011;62201;49.966;8.342;2023-06-22T04:29:19;10.73;;;7.07;;
61640;SDS011;62201;49.966;8.342;2023-06-22T04:31:45;9.55;;;7.18;;
61640;SDS011;62201;49.966;8.342;2023-06-22T04:34:16;12.80;;;8.13;;
61640;SDS011;62201;49.966;8.342;2023-06-22T04:36:41;15.40;;;7.25;;
61640;SDS011;62201;49.966;8.342;2023-06-22T04:39:07;10.68;;;7.72;;
61640;SDS011;62201;49.966;8.342;2023-06-22T04:41:40;8.70;;;7.25;;
61640;SDS011;62201;49.966;8.342;2023-06-22T04:44:09;8.98;;;7.35;;
61640;SDS011;62201;49.966;8.342;2023-06-22T04:46:35;7.90;;;7.10;;
61640;SDS011;62201;49.966;8.342;2023-06-22T04:49:04;7.78;;;6.90;;
61640;SDS011;62201;49.966;8.342;2023-06-22T04:51:31;8.82;;;7.03;;
61640;SDS011;62201;49.966;8.342;2023-06-22T04:53:57;9.52;;;7.15;;
61640;SDS011;62201;49.966;8.342;2023-06-22T04:56:26;13.60;;;7.47;;
61640;SDS011;62201;49.966;8.342;2023-06-22T04:58:53;13.10;;;9.02;;
61640;SDS011;62201;49.966;8.342;2023-06-22T05:01:22;11.25;;;7.88;;
61640;SDS011;62201;49.966;8.342;2023-06-22T05:03:48;9.68;;;8.00;;
61640;SDS011;62201;49.966;8.342;2023-06-22T05:06:14;11.27;;;8.05;;
61640;SDS011;62201;49.966;8.342;2023-06-22T05:08:40;10.70;;;7.65;;
61640;SDS011;62201;49.966;8.342;2023-06-22T05:11:05;8.50;;;7.63;;
61640;SDS011;62201;49.966;8.342;2023-06-22T05:13:31;11.45;;;8.07;;
61640;SDS011;62201;49.966;8.342;2023-06-22T05:15:57;9.48;;;7.82;;
61640;SDS011;62201;49.966;8.342;2023-06-22T05:18:30;8.77;;;7.82;;
61640;SDS011;62201;49.966;8.342;2023-06-22T05:20:55;9.18;;;7.75;;
61640;SDS011;62201;49.966;8.342;2023-06-22T05:23:22;13.07;;;7.57;;
61640;SDS011;62201;49.966;8.342;2023-06-22T05:25:47;9.18;;;7.30;;
61640;SDS011;62201;49.966;8.342;2023-06-22T05:28:12;8.80;;;7.53;;
61640;SDS011;62201;49.966;8.342;2023-06-22T05:30:38;9.63;;;7.85;;
61640;SDS011;62201;49.966;8.342;2023-06-22T05:33:04;9.45;;;8.02;;
61640;SDS011;62201;49.966;8.342;2023-06-22T05:35:29;13.07;;;8.50;;
61640;SDS011;62201;49.966;8.342;2023-06-22T05:37:55;10.73;;;7.90;;
61640;SDS011;62201;49.966;8.342;2023-06-22T05:40:20;8.48;;;7.38;;
61640;SDS011;62201;49.966;8.342;2023-06-22T05:42:46;10.60;;;7.47;;
61640;SDS011;62201;49.966;8.342;2023-06-22T05:45:12;10.38;;;7.50;;
61640;SDS011;62201;49.966;8.342;2023-06-22T05:47:37;8.55;;;7.10;;
61640;SDS011;62201;49.966;8.342;2023-06-22T05:50:03;11.93;;;7.50;;
61640;SDS011;62201;49.966;8.342;2023-06-22T05:52:33;8.98;;;6.95;;
61640;SDS011;62201;49.966;8.342;2023-06-22T05:54:59;10.25;;;7.47;;
61640;SDS011;62201;49.966;8.342;2023-06-22T05:57:24;11.38;;;7.65;;
61640;SDS011;62201;49.966;8.342;2023-06-22T05:59:50;11.15;;;7.13;;
61640;SDS011;62201;49.966;8.342;2023-06-22T06:02:20;10.68;;;7.20;;
61640;SDS011;62201;49.966;8.342;2023-06-22T06:04:46;10.52;;;7.05;;
61640;SDS011;62201;49.966;8.342;2023-06-22T06:07:11;8.82;;;6.68;;
61640;SDS011;62201;49.966;8.342;2023-06-22T06:09:36;7.97;;;7.18;;
61640;SDS011;62201;49.966;8.342;2023-06-22T06:12:02;10.02;;;6.80;;
61640;SDS011;62201;49.966;8.342;2023-06-22T06:14:28;9.20;;;7.00;;
61640;SDS011;62201;49.966;8.342;2023-06-22T06:16:53;9.32;;;7.43;;
61640;SDS011;62201;49.966;8.342;2023-06-22T06:19:19;11.85;;;7.20;;
61640;SDS011;62201;49.966;8.342;2023-06-22T06:21:44;9.90;;;7.30;;
61640;SDS011;62201;49.966;8.342;2023-06-22T06:24:11;7.43;;;6.72;;
61640;SDS011;62201;49.966;8.342;2023-06-22T06:26:36;10.70;;;7.45;;
61640;SDS011;62201;49.966;8.342;2023-06-22T06:29:02;10.07;;;7.00;;
61640;SDS011;62201;49.966;8.342;2023-06-22T06:31:28;8.60;;;6.75;;
61640;SDS011;62201;49.966;8.342;2023-06-22T06:33:54;10.95;;;7.05;;
61640;SDS011;62201;49.966;8.342;2023-06-22T06:36:20;9.63;;;6.90;;
61640;SDS011;62201;49.966;8.342;2023-06-22T06:38:45;12.98;;;7.30;;
61640;SDS011;62201;49.966;8.342;2023-06-22T06:41:12;10.40;;;6.80;;
61640;SDS011;62201;49.966;8.342;2023-06-22T06:43:39;12.18;;;6.78;;
61640;SDS011;62201;49.966;8.342;2023-06-22T06:46:04;14.93;;;6.70;;
61640;SDS011;62201;49.966;8.342;2023-06-22T06:48:30;7.70;;;6.65;;
61640;SDS011;62201;49.966;8.342;2023-06-22T06:50:55;10.25;;;6.65;;
61640;SDS011;62201;49.966;8.342;2023-06-22T06:53:20;12.25;;;6.88;;
61640;SDS011;62201;49.966;8.342;2023-06-22T06:55:46;14.00;;;7.50;;
61640;SDS011;62201;49.966;8.342;2023-06-22T06:58:11;15.07;;;7.07;;
61640;SDS011;62201;49.966;8.342;2023-06-22T07:00:38;9.65;;;6.70;;
61640;SDS011;62201;49.966;8.342;2023-06-22T07:03:04;9.63;;;7.20;;
61640;SDS011;62201;49.966;8.342;2023-06-22T07:05:29;12.15;;;6.95;;
61640;SDS011;62201;49.966;8.342;2023-06-22T07:07:55;10.85;;;7.20;;
61640;SDS011;62201;49.966;8.342;2023-06-22T07:10:20;16.15;;;7.00;;
61640;SDS011;62201;49.966;8.342;2023-06-22T07:12:46;9.30;;;6.80;;
61640;SDS011;62201;49.966;8.342;2023-06-22T07:15:11;10.40;;;6.90;;
61640;SDS011;62201;49.966;8.342;2023-06-22T07:17:37;8.95;;;7.35;;
61640;SDS011;62201;49.966;8.342;2023-06-22T07:20:05;13.05;;;7.60;;
61640;SDS011;62201;49.966;8.342;2023-06-22T07:22:35;11.25;;;6.47;;
61640;SDS011;62201;49.966;8.342;2023-06-22T07:25:01;11.75;;;6.90;;
61640;SDS011;62201;49.966;8.342;2023-06-22T07:27:30;7.18;;;6.32;;
61640;SDS011;62201;49.966;8.342;2023-06-22T07:30:00;9.88;;;7.13;;
61640;SDS011;62201;49.966;8.342;2023-06-22T07:32:26;12.02;;;6.95;;
61640;SDS011;62201;49.966;8.342;2023-06-22T07:34:53;9.85;;;6.80;;
61640;SDS011;62201;49.966;8.342;2023-06-22T07:37:18;11.75;;;6.80;;
61640;SDS011;62201;49.966;8.342;2023-06-22T07:39:44;8.30;;;6.88;;
61640;SDS011;62201;49.966;8.342;2023-06-22T07:42:09;11.93;;;7.28;;
61640;SDS011;62201;49.966;8.342;2023-06-22T07:44:35;15.70;;;7.82;;
61640;SDS011;62201;49.966;8.342;2023-06-22T07:47:00;8.15;;;6.65;;
61640;SDS011;62201;49.966;8.342;2023-06-22T07:49:27;8.70;;;6.80;;
61640;SDS011;62201;49.966;8.342;2023-06-22T07:51:53;9.18;;;6.70;;
61640;SDS011;62201;49.966;8.342;2023-06-22T07:54:18;11.88;;;6.70;;
61640;SDS011;62201;49.966;8.342;2023-06-22T07:56:44;11.45;;;6.38;;
61640;SDS011;62201;49.966;8.342;2023-06-22T07:59:10;11.68;;;6.65;;
61640;SDS011;62201;49.966;8.342;2023-06-22T08:01:36;9.68;;;6.50;;
61640;SDS011;62201;49.966;8.342;2023-06-22T08:04:01;11.40;;;6.75;;
61640;SDS011;62201;49.966;8.342;2023-06-22T08:06:29;10.18;;;7.57;;
61640;SDS011;62201;49.966;8.342;2023-06-22T08:08:55;7.63;;;6.45;;
61640;SDS011;62201;49.966;8.342;2023-06-22T08:11:21;10.73;;;6.45;;
61640;SDS011;62201;49.966;8.342;2023-06-22T08:13:48;13.43;;;6.72;;
61640;SDS011;62201;49.966;8.342;2023-06-22T08:16:14;9.80;;;6.30;;
61640;SDS011;62201;49.966;8.342;2023-06-22T08:18:39;7.90;;;6.57;;
61640;SDS011;62201;49.966;8.342;2023-06-22T08:21:05;11.68;;;6.97;;
61640;SDS011;62201;49.966;8.342;2023-06-22T08:23:30;8.70;;;6.82;;
61640;SDS011;62201;49.966;8.342;2023-06-22T08:25:56;10.73;;;7.30;;
61640;SDS011;62201;49.966;8.342;2023-06-22T08:28:21;8.98;;;6.60;;
61640;SDS011;62201;49.966;8.342;2023-06-22T08:30:46;10.88;;;6.60;;
61640;SDS011;62201;49.966;8.342;2023-06-22T08:33:12;10.50;;;6.38;;
61640;SDS011;62201;49.966;8.342;2023-06-22T08:35:37;10.00;;;7.05;;
61640;SDS011;62201;49.966;8.342;2023-06-22T08:38:03;8.18;;;6.22;;
61640;SDS011;62201;49.966;8.342;2023-06-22T08:40:29;10.65;;;6.35;;
61640;SDS011;62201;49.966;8.342;2023-06-22T08:42:54;10.90;;;7.03;;
61640;SDS011;62201;49.966;8.342;2023-06-22T08:45:20;10.65;;;6.72;;
61640;SDS011;62201;49.966;8.342;2023-06-22T08:47:45;13.05;;;6.75;;
61640;SDS011;62201;49.966;8.342;2023-06-22T08:50:11;7.20;;;6.30;;
61640;SDS011;62201;49.966;8.342;2023-06-22T08:52:37;9.68;;;6.28;;
61640;SDS011;62201;49.966;8.342;2023-06-22T08:55:06;9.55;;;6.72;;
61640;SDS011;62201;49.966;8.342;2023-06-22T08:57:32;8.88;;;6.20;;
61640;SDS011;62201;49.966;8.342;2023-06-22T08:59:58;8.00;;;6.28;;
61640;SDS011;62201;49.966;8.342;2023-06-22T09:02:24;7.57;;;6.20;;
61640;SDS011;62201;49.966;8.342;2023-06-22T09:07:24;10.75;;;6.63;;
61640;SDS011;62201;49.966;8.342;2023-06-22T09:09:50;8.23;;;6.55;;
61640;SDS011;62201;49.966;8.342;2023-06-22T09:12:17;10.23;;;6.30;;
61640;SDS011;62201;49.966;8.342;2023-06-22T09:14:45;12.70;;;6.30;;
61640;SDS011;62201;49.966;8.342;2023-06-22T09:17:10;8.20;;;6.60;;
61640;SDS011;62201;49.966;8.342;2023-06-22T09:19:37;7.88;;;7.07;;
61640;SDS011;62201;49.966;8.342;2023-06-22T09:22:02;6.97;;;6.28;;
61640;SDS011;62201;49.966;8.342;2023-06-22T09:24:28;8.15;;;5.55;;
61640;SDS011;62201;49.966;8.342;2023-06-22T09:26:53;7.60;;;5.80;;
61640;SDS011;62201;49.966;8.342;2023-06-22T09:29:19;7.47;;;6.38;;
61640;SDS011;62201;49.966;8.342;2023-06-22T09:31:44;9.30;;;6.70;;
61640;SDS011;62201;49.966;8.342;2023-06-22T09:34:09;8.07;;;6.05;;
61640;SDS011;62201;49.966;8.342;2023-06-22T09:36:35;6.15;;;5.55;;
61640;SDS011;62201;49.966;8.342;2023-06-22T09:39:00;9.05;;;5.60;;
61640;SDS011;62201;49.966;8.342;2023-06-22T09:41:30;6.00;;;5.45;;
61640;SDS011;62201;49.966;8.342;2023-06-22T09:43:56;13.13;;;6.00;;
61640;SDS011;62201;49.966;8.342;2023-06-22T09:46:21;6.93;;;5.60;;
61640;SDS011;62201;49.966;8.342;2023-06-22T09:48:49;6.30;;;5.55;;
61640;SDS011;62201;49.966;8.342;2023-06-22T09:51:15;8.30;;;5.72;;
61640;SDS011;62201;49.966;8.342;2023-06-22T09:53:40;7.38;;;5.07;;
61640;SDS011;62201;49.966;8.342;2023-06-22T09:56:06;7.53;;;5.13;;
61640;SDS011;62201;49.966;8.342;2023-06-22T09:58:31;5.93;;;4.70;;
61640;SDS011;62201;49.966;8.342;2023-06-22T10:00:56;9.02;;;5.25;;
61640;SDS011;62201;49.966;8.342;2023-06-22T10:03:22;12.25;;;5.05;;
61640;SDS011;62201;49.966;8.342;2023-06-22T10:05:48;7.55;;;5.28;;
61640;SDS011;62201;49.966;8.342;2023-06-22T10:08:13;6.57;;;4.63;;
61640;SDS011;62201;49.966;8.342;2023-06-22T10:10:39;6.05;;;4.97;;
61640;SDS011;62201;49.966;8.342;2023-06-22T10:13:08;9.25;;;4.80;;
61640;SDS011;62201;49.966;8.342;2023-06-22T10:15:38;5.78;;;4.82;;
61640;SDS011;62201;49.966;8.342;2023-06-22T10:18:08;8.13;;;5.20;;
61640;SDS011;62201;49.966;8.342;2023-06-22T10:20:34;12.23;;;5.30;;
61640;SDS011;62201;49.966;8.342;2023-06-22T10:22:59;6.70;;;4.35;;
61640;SDS011;62201;49.966;8.342;2023-06-22T10:25:25;8.02;;;4.70;;
61640;SDS011;62201;49.966;8.342;2023-06-22T10:27:51;10.35;;;4.85;;
61640;SDS011;62201;49.966;8.342;2023-06-22T10:30:16;7.85;;;4.70;;
61640;SDS011;62201;49.966;8.342;2023-06-22T10:32:42;7.03;;;4.70;;
61640;SDS011;62201;49.966;8.342;2023-06-22T10:35:08;5.47;;;4.57;;
61640;SDS011;62201;49.966;8.342;2023-06-22T10:37:35;5.22;;;4.43;;
61640;SDS011;62201;49.966;8.342;2023-06-22T10:40:04;8.68;;;4.95;;
61640;SDS011;62201;49.966;8.342;2023-06-22T10:42:30;8.57;;;4.70;;
61640;SDS011;62201;49.966;8.342;2023-06-22T10:44:56;5.88;;;4.38;;
61640;SDS011;62201;49.966;8.342;2023-06-22T10:47:24;7.07;;;4.53;;
61640;SDS011;62201;49.966;8.342;2023-06-22T10:49:50;12.77;;;4.90;;
61640;SDS011;62201;49.966;8.342;2023-06-22T10:52:16;5.78;;;4.68;;
61640;SDS011;62201;49.966;8.342;2023-06-22T10:54:41;7.72;;;4.80;;
61640;SDS011;62201;49.966;8.342;2023-06-22T10:57:06;10.32;;;5.10;;
61640;SDS011;62201;49.966;8.342;2023-06-22T10:59:32;7.55;;;4.82;;
61640;SDS011;62201;49.966;8.342;2023-06-22T11:01:58;7.53;;;5.22;;
61640;SDS011;62201;49.966;8.342;2023-06-22T11:04:23;7.20;;;5.00;;
61640;SDS011;62201;49.966;8.342;2023-06-22T11:06:49;8.48;;;4.80;;
61640;SDS011;62201;49.966;8.342;2023-06-22T11:09:15;6.75;;;4.93;;
61640;SDS011;62201;49.966;8.342;2023-06-22T11:11:45;9.68;;;5.15;;
61640;SDS011;62201;49.966;8.342;2023-06-22T11:14:11;9.13;;;4.70;;
61640;SDS011;62201;49.966;8.342;2023-06-22T11:16:36;9.57;;;4.95;;
61640;SDS011;62201;49.966;8.342;2023-06-22T11:19:01;7.03;;;5.05;;
61640;SDS011;62201;49.966;8.342;2023-06-22T11:21:28;10.85;;;4.80;;
61640;SDS011;62201;49.966;8.342;2023-06-22T11:23:53;8.07;;;5.10;;
61640;SDS011;62201;49.966;8.342;2023-06-22T11:26:19;9.73;;;4.90;;
61640;SDS011;62201;49.966;8.342;2023-06-22T11:28:46;12.45;;;5.78;;
61640;SDS011;62201;49.966;8.342;2023-06-22T11:31:11;7.82;;;5.22;;
61640;SDS011;62201;49.966;8.342;2023-06-22T11:33:36;9.05;;;5.10;;
61640;SDS011;62201;49.966;8.342;2023-06-22T11:36:02;11.30;;;4.70;;
61640;SDS011;62201;49.966;8.342;2023-06-22T11:38:27;6.95;;;4.93;;
61640;SDS011;62201;49.966;8.342;2023-06-22T11:40:53;8.57;;;5.13;;
61640;SDS011;62201;49.966;8.342;2023-06-22T11:43:18;10.68;;;5.40;;
61640;SDS011;62201;49.966;8.342;2023-06-22T11:45:43;8.27;;;4.75;;
61640;SDS011;62201;49.966;8.342;2023-06-22T11:48:09;12.70;;;5.13;;
61640;SDS011;62201;49.966;8.342;2023-06-22T11:50:34;9.73;;;5.25;;
61640;SDS011;62201;49.966;8.342;2023-06-22T11:53:01;8.25;;;5.38;;
61640;SDS011;62201;49.966;8.342;2023-06-22T11:55:28;8.45;;;5.47;;
61640;SDS011;62201;49.966;8.342;2023-06-22T11:57:54;7.53;;;5.25;;
61640;SDS011;62201;49.966;8.342;2023-06-22T12:00:21;8.93;;;5.18;;
61640;SDS011;62201;49.966;8.342;2023-06-22T12:02:49;9.65;;;5.20;;
61640;SDS011;62201;49.966;8.342;2023-06-22T12:05:16;10.30;;;5.57;;
61640;SDS011;62201;49.966;8.342;2023-06-22T12:07:41;9.35;;;5.57;;
61640;SDS011;62201;49.966;8.342;2023-06-22T12:10:07;9.02;;;5.07;;
61640;SDS011;62201;49.966;8.342;2023-06-22T12:12:32;7.35;;;5.38;;
61640;SDS011;62201;49.966;8.342;2023-06-22T12:14:58;7.72;;;5.57;;
61640;SDS011;62201;49.966;8.342;2023-06-22T12:17:28;9.63;;;5.65;;
61640;SDS011;62201;49.966;8.342;2023-06-22T12:19:53;9.35;;;5.25;;
61640;SDS011;62201;49.966;8.342;2023-06-22T12:22:18;7.20;;;5.47;;
61640;SDS011;62201;49.966;8.342;2023-06-22T12:24:44;9.55;;;5.47;;
61640;SDS011;62201;49.966;8.342;2023-06-22T12:27:09;10.77;;;5.38;;
61640;SDS011;62201;49.966;8.342;2023-06-22T12:29:35;10.25;;;5.68;;
61640;SDS011;62201;49.966;8.342;2023-06-22T12:32:00;7.80;;;5.20;;
61640;SDS011;62201;49.966;8.342;2023-06-22T12:34:25;11.25;;;5.28;;
61640;SDS011;62201;49.966;8.342;2023-06-22T12:36:51;11.75;;;5.47;;
61640;SDS011;62201;49.966;8.342;2023-06-22T12:39:19;9.63;;;4.85;;
61640;SDS011;62201;49.966;8.342;2023-06-22T12:41:44;9.65;;;5.10;;
61640;SDS011;62201;49.966;8.342;2023-06-22T12:44:10;10.38;;;6.18;;
61640;SDS011;62201;49.966;8.342;2023-06-22T12:46:35;11.20;;;5.53;;
61640;SDS011;62201;49.966;8.342;2023-06-22T12:49:03;5.97;;;5.18;;
61640;SDS011;62201;49.966;8.342;2023-06-22T12:51:31;10.90;;;5.25;;
61640;SDS011;62201;49.966;8.342;2023-06-22T12:53:56;12.73;;;5.55;;
61640;SDS011;62201;49.966;8.342;2023-06-22T12:56:22;11.68;;;5.57;;
61640;SDS011;62201;49.966;8.342;2023-06-22T12:58:47;14.70;;;5.45;;
61640;SDS011;62201;49.966;8.342;2023-06-22T13:01:13;12.10;;;5.50;;
61640;SDS011;62201;49.966;8.342;2023-06-22T13:03:38;9.68;;;5.55;;
61640;SDS011;62201;49.966;8.342;2023-06-22T13:06:04;7.47;;;5.53;;
61640;SDS011;62201;49.966;8.342;2023-06-22T13:08:29;11.10;;;5.07;;
61640;SDS011;62201;49.966;8.342;2023-06-22T13:10:55;9.98;;;5.30;;
61640;SDS011;62201;49.966;8.342;2023-06-22T13:13:23;11.30;;;5.45;;
61640;SDS011;62201;49.966;8.342;2023-06-22T13:15:49;9.57;;;5.50;;
61640;SDS011;62201;49.966;8.342;2023-06-22T13:18:15;11.23;;;5.70;;
61640;SDS011;62201;49.966;8.342;2023-06-22T13:20:40;7.88;;;5.30;;
61640;SDS011;62201;49.966;8.342;2023-06-22T13:23:06;10.27;;;5.57;;
61640;SDS011;62201;49.966;8.342;2023-06-22T13:25:31;14.95;;;5.53;;
61640;SDS011;62201;49.966;8.342;2023-06-22T13:27:56;7.40;;;4.90;;
61640;SDS011;62201;49.966;8.342;2023-06-22T13:30:22;12.50;;;5.20;;
61640;SDS011;62201;49.966;8.342;2023-06-22T13:32:47;7.20;;;5.30;;
61640;SDS011;62201;49.966;8.342;2023-06-22T13:35:12;8.02;;;4.80;;
61640;SDS011;62201;49.966;8.342;2023-06-22T13:37:38;10.27;;;5.65;;
61640;SDS011;62201;49.966;8.342;2023-06-22T13:40:07;11.07;;;5.30;;
61640;SDS011;62201;49.966;8.342;2023-06-22T13:42:33;11.38;;;5.10;;
61640;SDS011;62201;49.966;8.342;2023-06-22T13:44:58;10.05;;;4.45;;
61640;SDS011;62201;49.966;8.342;2023-06-22T13:47:24;8.85;;;4.68;;
61640;SDS011;62201;49.966;8.342;2023-06-22T13:49:49;7.82;;;4.45;;
61640;SDS011;62201;49.966;8.342;2023-06-22T13:52:15;12.68;;;4.68;;
61640;SDS011;62201;49.966;8.342;2023-06-22T13:54:40;11.38;;;4.60;;
61640;SDS011;62201;49.966;8.342;2023-06-22T13:57:05;10.55;;;4.38;;
61640;SDS011;62201;49.966;8.342;2023-06-22T13:59:31;13.20;;;4.35;;
61640;SDS011;62201;49.966;8.342;2023-06-22T14:01:56;13.07;;;4.82;;
61640;SDS011;62201;49.966;8.342;2023-06-22T14:04:25;15.10;;;5.10;;
61640;SDS011;62201;49.966;8.342;2023-06-22T14:06:50;15.50;;;5.20;;
61640;SDS011;62201;49.966;8.342;2023-06-22T14:09:15;10.70;;;5.10;;
61640;SDS011;62201;49.966;8.342;2023-06-22T14:11:41;13.30;;;4.60;;
61640;SDS011;62201;49.966;8.342;2023-06-22T14:14:06;9.50;;;4.45;;
61640;SDS011;62201;49.966;8.342;2023-06-22T14:16:32;13.30;;;4.20;;
61640;SDS011;62201;49.966;8.342;2023-06-22T14:18:57;9.98;;;4.63;;
61640;SDS011;62201;49.966;8.342;2023-06-22T14:21:22;15.43;;;5.10;;
61640;SDS011;62201;49.966;8.342;2023-06-22T14:23:48;14.43;;;4.35;;
61640;SDS011;62201;49.966;8.342;2023-06-22T14:26:20;18.35;;;4.57;;
61640;SDS011;62201;49.966;8.342;2023-06-22T14:28:47;10.90;;;4.57;;
61640;SDS011;62201;49.966;8.342;2023-06-22T14:31:15;12.63;;;4.57;;
61640;SDS011;62201;49.966;8.342;2023-06-22T14:33:40;12.70;;;4.30;;
61640;SDS011;62201;49.966;8.342;2023-06-22T14:36:06;13.57;;;4.63;;
61640;SDS011;62201;49.966;8.342;2023-06-22T14:38:31;14.43;;;5.20;;
61640;SDS011;62201;49.966;8.342;2023-06-22T14:40:57;12.57;;;4.25;;
61640;SDS011;62201;49.966;8.342;2023-06-22T14:43:22;16.77;;;5.10;;